sensor_id;sensor_type;location;lat;lon;timestamp;P1;durP1;ratioP1;P2;durP2;ratioP2
56511;SDS011;42408;53.238;5.686;2023-12-04T00:00:04;30.77;;;23.03;;
56511;SDS011;42408;53.238;5.686;2023-12-04T00:02:30;30.52;;;23.65;;
56511;SDS011;42408;53.238;5.686;2023-12-04T00:04:55;28.50;;;22.57;;
56511;SDS011;42408;53.238;5.686;2023-12-04T00:07:21;30.93;;;22.80;;
56511;SDS011;42408;53.238;5.686;2023-12-04T00:09:47;27.43;;;21.87;;
56511;SDS011;42408;53.238;5.686;2023-12-04T00:12:12;29.27;;;21.50;;
56511;SDS011;42408;53.238;5.686;2023-12-04T00:14:38;28.60;;;21.47;;
56511;SDS011;42408;53.238;5.686;2023-12-04T00:17:03;30.00;;;22.33;;
56511;SDS011;42408;53.238;5.686;2023-12-04T00:19:29;30.77;;;21.30;;
56511;SDS011;42408;53.238;5.686;2023-12-04T00:21:55;30.47;;;21.97;;
56511;SDS011;42408;53.238;5.686;2023-12-04T00:24:20;30.90;;;22.77;;
56511;SDS011;42408;53.238;5.686;2023-12-04T00:26:46;27.30;;;21.77;;
56511;SDS011;42408;53.238;5.686;2023-12-04T00:29:12;29.47;;;21.67;;
56511;SDS011;42408;53.238;5.686;2023-12-04T00:31:37;26.77;;;20.53;;
56511;SDS011;42408;53.238;5.686;2023-12-04T00:34:03;28.50;;;22.87;;
56511;SDS011;42408;53.238;5.686;2023-12-04T00:36:28;30.97;;;22.93;;
56511;SDS011;42408;53.238;5.686;2023-12-04T00:38:54;27.37;;;21.23;;
56511;SDS011;42408;53.238;5.686;2023-12-04T00:41:20;28.33;;;22.97;;
56511;SDS011;42408;53.238;5.686;2023-12-04T00:43:45;27.77;;;21.83;;
56511;SDS011;42408;53.238;5.686;2023-12-04T00:46:11;27.10;;;20.70;;
56511;SDS011;42408;53.238;5.686;2023-12-04T00:48:36;27.60;;;20.67;;
56511;SDS011;42408;53.238;5.686;2023-12-04T00:51:02;28.00;;;21.43;;
56511;SDS011;42408;53.238;5.686;2023-12-04T00:53:28;26.20;;;21.20;;
56511;SDS011;42408;53.238;5.686;2023-12-04T00:55:54;27.23;;;20.03;;
56511;SDS011;42408;53.238;5.686;2023-12-04T00:58:19;26.73;;;21.00;;
56511;SDS011;42408;53.238;5.686;2023-12-04T01:00:45;27.73;;;21.67;;
56511;SDS011;42408;53.238;5.686;2023-12-04T01:03:13;26.50;;;20.75;;
56511;SDS011;42408;53.238;5.686;2023-12-04T01:05:39;23.67;;;19.80;;
56511;SDS011;42408;53.238;5.686;2023-12-04T01:08:05;27.10;;;21.40;;
56511;SDS011;42408;53.238;5.686;2023-12-04T01:10:31;30.87;;;22.77;;
56511;SDS011;42408;53.238;5.686;2023-12-04T01:12:56;26.63;;;20.87;;
56511;SDS011;42408;53.238;5.686;2023-12-04T01:15:22;29.03;;;23.50;;
56511;SDS011;42408;53.238;5.686;2023-12-04T01:17:48;28.02;;;22.33;;
56511;SDS011;42408;53.238;5.686;2023-12-04T01:20:14;27.83;;;21.50;;
56511;SDS011;42408;53.238;5.686;2023-12-04T01:22:40;26.60;;;21.60;;
56511;SDS011;42408;53.238;5.686;2023-12-04T01:25:06;28.50;;;22.63;;
56511;SDS011;42408;53.238;5.686;2023-12-04T01:27:32;28.90;;;22.05;;
56511;SDS011;42408;53.238;5.686;2023-12-04T01:30:00;23.98;;;18.92;;
56511;SDS011;42408;53.238;5.686;2023-12-04T01:32:26;28.00;;;22.48;;
56511;SDS011;42408;53.238;5.686;2023-12-04T01:34:52;27.23;;;21.87;;
56511;SDS011;42408;53.238;5.686;2023-12-04T01:37:17;30.27;;;22.93;;
56511;SDS011;42408;53.238;5.686;2023-12-04T01:39:43;30.43;;;23.13;;
56511;SDS011;42408;53.238;5.686;2023-12-04T01:42:09;29.83;;;22.83;;
56511;SDS011;42408;53.238;5.686;2023-12-04T01:44:35;33.00;;;24.05;;
56511;SDS011;42408;53.238;5.686;2023-12-04T01:47:02;29.40;;;22.67;;
56511;SDS011;42408;53.238;5.686;2023-12-04T01:49:28;30.05;;;22.15;;
56511;SDS011;42408;53.238;5.686;2023-12-04T01:51:54;26.60;;;19.95;;
56511;SDS011;42408;53.238;5.686;2023-12-04T01:54:21;30.88;;;23.33;;
56511;SDS011;42408;53.238;5.686;2023-12-04T01:56:47;30.17;;;23.93;;
56511;SDS011;42408;53.238;5.686;2023-12-04T01:59:13;30.27;;;23.50;;
56511;SDS011;42408;53.238;5.686;2023-12-04T02:01:39;30.10;;;23.63;;
56511;SDS011;42408;53.238;5.686;2023-12-04T02:04:05;31.13;;;22.70;;
56511;SDS011;42408;53.238;5.686;2023-12-04T02:06:31;30.43;;;23.67;;
56511;SDS011;42408;53.238;5.686;2023-12-04T02:08:56;29.87;;;23.70;;
56511;SDS011;42408;53.238;5.686;2023-12-04T02:11:22;31.60;;;24.10;;
56511;SDS011;42408;53.238;5.686;2023-12-04T02:13:49;35.67;;;24.45;;
56511;SDS011;42408;53.238;5.686;2023-12-04T02:16:15;34.37;;;25.30;;
56511;SDS011;42408;53.238;5.686;2023-12-04T02:18:43;31.55;;;22.88;;
56511;SDS011;42408;53.238;5.686;2023-12-04T02:21:09;32.93;;;24.77;;
56511;SDS011;42408;53.238;5.686;2023-12-04T02:23:35;32.80;;;24.63;;
56511;SDS011;42408;53.238;5.686;2023-12-04T02:26:01;33.03;;;23.53;;
56511;SDS011;42408;53.238;5.686;2023-12-04T02:28:34;32.83;;;24.17;;
56511;SDS011;42408;53.238;5.686;2023-12-04T02:31:03;34.25;;;24.85;;
56511;SDS011;42408;53.238;5.686;2023-12-04T02:33:30;36.95;;;26.27;;
56511;SDS011;42408;53.238;5.686;2023-12-04T02:35:58;37.00;;;26.17;;
56511;SDS011;42408;53.238;5.686;2023-12-04T02:38:25;35.95;;;26.23;;
56511;SDS011;42408;53.238;5.686;2023-12-04T02:40:52;33.55;;;25.13;;
56511;SDS011;42408;53.238;5.686;2023-12-04T02:43:17;35.43;;;25.50;;
56511;SDS011;42408;53.238;5.686;2023-12-04T02:45:43;37.80;;;26.30;;
56511;SDS011;42408;53.238;5.686;2023-12-04T02:48:09;39.10;;;27.30;;
56511;SDS011;42408;53.238;5.686;2023-12-04T02:50:35;36.42;;;25.42;;
56511;SDS011;42408;53.238;5.686;2023-12-04T02:53:01;34.03;;;25.53;;
56511;SDS011;42408;53.238;5.686;2023-12-04T02:55:26;33.27;;;25.10;;
56511;SDS011;42408;53.238;5.686;2023-12-04T02:57:53;35.50;;;25.42;;
56511;SDS011;42408;53.238;5.686;2023-12-04T03:00:18;33.53;;;24.60;;
56511;SDS011;42408;53.238;5.686;2023-12-04T03:02:44;37.57;;;26.73;;
56511;SDS011;42408;53.238;5.686;2023-12-04T03:05:09;35.73;;;26.00;;
56511;SDS011;42408;53.238;5.686;2023-12-04T03:07:35;37.40;;;26.93;;
56511;SDS011;42408;53.238;5.686;2023-12-04T03:10:01;39.50;;;27.37;;
56511;SDS011;42408;53.238;5.686;2023-12-04T03:12:27;34.50;;;25.40;;
56511;SDS011;42408;53.238;5.686;2023-12-04T03:14:53;39.23;;;27.30;;
56511;SDS011;42408;53.238;5.686;2023-12-04T03:17:18;42.07;;;28.90;;
56511;SDS011;42408;53.238;5.686;2023-12-04T03:19:44;38.93;;;27.83;;
56511;SDS011;42408;53.238;5.686;2023-12-04T03:22:10;38.43;;;26.30;;
56511;SDS011;42408;53.238;5.686;2023-12-04T03:24:36;36.40;;;25.00;;
56511;SDS011;42408;53.238;5.686;2023-12-04T03:27:02;37.53;;;26.27;;
56511;SDS011;42408;53.238;5.686;2023-12-04T03:29:28;40.03;;;27.33;;
56511;SDS011;42408;53.238;5.686;2023-12-04T03:31:53;35.60;;;24.77;;
56511;SDS011;42408;53.238;5.686;2023-12-04T03:34:19;41.83;;;26.23;;
56511;SDS011;42408;53.238;5.686;2023-12-04T03:36:44;39.43;;;27.10;;
56511;SDS011;42408;53.238;5.686;2023-12-04T03:39:10;39.37;;;26.00;;
56511;SDS011;42408;53.238;5.686;2023-12-04T03:41:36;35.07;;;25.87;;
56511;SDS011;42408;53.238;5.686;2023-12-04T03:44:01;37.63;;;27.10;;
56511;SDS011;42408;53.238;5.686;2023-12-04T03:46:27;41.43;;;26.63;;
56511;SDS011;42408;53.238;5.686;2023-12-04T03:48:53;39.67;;;27.23;;
56511;SDS011;42408;53.238;5.686;2023-12-04T03:51:20;36.80;;;26.13;;
56511;SDS011;42408;53.238;5.686;2023-12-04T03:53:45;36.67;;;25.17;;
56511;SDS011;42408;53.238;5.686;2023-12-04T03:56:11;37.47;;;26.17;;
56511;SDS011;42408;53.238;5.686;2023-12-04T03:58:37;38.40;;;26.63;;
56511;SDS011;42408;53.238;5.686;2023-12-04T04:01:03;39.70;;;25.58;;
56511;SDS011;42408;53.238;5.686;2023-12-04T04:03:29;34.70;;;25.30;;
56511;SDS011;42408;53.238;5.686;2023-12-04T04:05:55;38.43;;;24.43;;
56511;SDS011;42408;53.238;5.686;2023-12-04T04:08:20;38.13;;;24.83;;
56511;SDS011;42408;53.238;5.686;2023-12-04T04:10:46;36.13;;;25.20;;
56511;SDS011;42408;53.238;5.686;2023-12-04T04:13:12;34.77;;;23.90;;
56511;SDS011;42408;53.238;5.686;2023-12-04T04:15:37;32.57;;;23.70;;
56511;SDS011;42408;53.238;5.686;2023-12-04T04:18:03;34.13;;;24.73;;
56511;SDS011;42408;53.238;5.686;2023-12-04T04:20:29;34.90;;;23.70;;
56511;SDS011;42408;53.238;5.686;2023-12-04T04:22:54;36.47;;;23.33;;
56511;SDS011;42408;53.238;5.686;2023-12-04T04:25:20;37.30;;;25.13;;
56511;SDS011;42408;53.238;5.686;2023-12-04T04:27:47;35.60;;;23.75;;
56511;SDS011;42408;53.238;5.686;2023-12-04T04:30:13;32.70;;;22.87;;
56511;SDS011;42408;53.238;5.686;2023-12-04T04:32:38;31.10;;;23.20;;
56511;SDS011;42408;53.238;5.686;2023-12-04T04:35:04;33.77;;;23.03;;
56511;SDS011;42408;53.238;5.686;2023-12-04T04:37:30;33.70;;;23.67;;
56511;SDS011;42408;53.238;5.686;2023-12-04T04:39:55;32.77;;;21.83;;
56511;SDS011;42408;53.238;5.686;2023-12-04T04:42:22;34.93;;;23.93;;
56511;SDS011;42408;53.238;5.686;2023-12-04T04:44:47;35.27;;;23.73;;
56511;SDS011;42408;53.238;5.686;2023-12-04T04:47:13;33.63;;;22.33;;
56511;SDS011;42408;53.238;5.686;2023-12-04T04:49:39;32.77;;;21.80;;
56511;SDS011;42408;53.238;5.686;2023-12-04T04:52:04;34.63;;;22.07;;
56511;SDS011;42408;53.238;5.686;2023-12-04T04:54:30;31.73;;;22.03;;
56511;SDS011;42408;53.238;5.686;2023-12-04T04:56:57;32.67;;;22.30;;
56511;SDS011;42408;53.238;5.686;2023-12-04T04:59:23;32.03;;;21.47;;
56511;SDS011;42408;53.238;5.686;2023-12-04T05:01:48;32.17;;;21.67;;
56511;SDS011;42408;53.238;5.686;2023-12-04T05:04:14;31.93;;;21.37;;
56511;SDS011;42408;53.238;5.686;2023-12-04T05:06:40;31.57;;;22.53;;
56511;SDS011;42408;53.238;5.686;2023-12-04T05:09:05;33.10;;;22.20;;
56511;SDS011;42408;53.238;5.686;2023-12-04T05:11:31;31.10;;;21.07;;
56511;SDS011;42408;53.238;5.686;2023-12-04T05:13:57;30.63;;;20.60;;
56511;SDS011;42408;53.238;5.686;2023-12-04T05:16:22;27.70;;;20.37;;
56511;SDS011;42408;53.238;5.686;2023-12-04T05:18:48;31.10;;;20.10;;
56511;SDS011;42408;53.238;5.686;2023-12-04T05:21:13;31.60;;;21.03;;
56511;SDS011;42408;53.238;5.686;2023-12-04T05:23:39;32.23;;;20.77;;
56511;SDS011;42408;53.238;5.686;2023-12-04T05:26:05;30.70;;;19.40;;
56511;SDS011;42408;53.238;5.686;2023-12-04T05:28:31;28.88;;;19.65;;
56511;SDS011;42408;53.238;5.686;2023-12-04T05:30:57;30.83;;;20.90;;
56511;SDS011;42408;53.238;5.686;2023-12-04T05:33:23;31.27;;;20.23;;
56511;SDS011;42408;53.238;5.686;2023-12-04T05:35:49;30.07;;;20.70;;
56511;SDS011;42408;53.238;5.686;2023-12-04T05:38:16;29.52;;;19.63;;
56511;SDS011;42408;53.238;5.686;2023-12-04T05:40:42;29.13;;;18.40;;
56511;SDS011;42408;53.238;5.686;2023-12-04T05:43:08;31.87;;;21.40;;
56511;SDS011;42408;53.238;5.686;2023-12-04T05:45:34;29.63;;;20.13;;
56511;SDS011;42408;53.238;5.686;2023-12-04T05:47:59;26.00;;;19.23;;
56511;SDS011;42408;53.238;5.686;2023-12-04T05:50:25;30.97;;;19.47;;
56511;SDS011;42408;53.238;5.686;2023-12-04T05:52:51;24.70;;;18.97;;
56511;SDS011;42408;53.238;5.686;2023-12-04T05:55:17;31.90;;;20.30;;
56511;SDS011;42408;53.238;5.686;2023-12-04T05:57:43;30.37;;;18.60;;
56511;SDS011;42408;53.238;5.686;2023-12-04T06:00:09;29.00;;;19.25;;
56511;SDS011;42408;53.238;5.686;2023-12-04T06:02:38;27.67;;;18.30;;
56511;SDS011;42408;53.238;5.686;2023-12-04T06:05:05;28.67;;;18.38;;
56511;SDS011;42408;53.238;5.686;2023-12-04T06:07:32;28.88;;;18.85;;
56511;SDS011;42408;53.238;5.686;2023-12-04T06:09:58;26.77;;;18.63;;
56511;SDS011;42408;53.238;5.686;2023-12-04T06:12:24;27.93;;;19.60;;
56511;SDS011;42408;53.238;5.686;2023-12-04T06:14:49;29.43;;;19.47;;
56511;SDS011;42408;53.238;5.686;2023-12-04T06:17:16;26.90;;;18.13;;
56511;SDS011;42408;53.238;5.686;2023-12-04T06:19:41;28.30;;;18.93;;
56511;SDS011;42408;53.238;5.686;2023-12-04T06:22:07;28.33;;;19.53;;
56511;SDS011;42408;53.238;5.686;2023-12-04T06:24:33;29.33;;;19.30;;
56511;SDS011;42408;53.238;5.686;2023-12-04T06:26:59;24.47;;;18.60;;
56511;SDS011;42408;53.238;5.686;2023-12-04T06:29:25;27.73;;;19.13;;
56511;SDS011;42408;53.238;5.686;2023-12-04T06:31:51;27.48;;;19.38;;
56511;SDS011;42408;53.238;5.686;2023-12-04T06:34:17;27.60;;;19.10;;
56511;SDS011;42408;53.238;5.686;2023-12-04T06:36:43;26.73;;;17.60;;
56511;SDS011;42408;53.238;5.686;2023-12-04T06:39:11;26.53;;;18.03;;
56511;SDS011;42408;53.238;5.686;2023-12-04T06:41:38;25.48;;;17.23;;
56511;SDS011;42408;53.238;5.686;2023-12-04T06:44:05;24.52;;;17.85;;
56511;SDS011;42408;53.238;5.686;2023-12-04T06:49:00;25.48;;;17.58;;
56511;SDS011;42408;53.238;5.686;2023-12-04T06:51:26;27.85;;;18.27;;
56511;SDS011;42408;53.238;5.686;2023-12-04T06:53:51;27.60;;;18.43;;
56511;SDS011;42408;53.238;5.686;2023-12-04T06:56:17;26.57;;;18.57;;
56511;SDS011;42408;53.238;5.686;2023-12-04T06:58:43;26.73;;;19.63;;
56511;SDS011;42408;53.238;5.686;2023-12-04T07:01:08;23.97;;;16.47;;
56511;SDS011;42408;53.238;5.686;2023-12-04T07:03:34;29.47;;;18.60;;
56511;SDS011;42408;53.238;5.686;2023-12-04T07:06:00;26.00;;;18.10;;
56511;SDS011;42408;53.238;5.686;2023-12-04T07:08:26;24.90;;;16.48;;
56511;SDS011;42408;53.238;5.686;2023-12-04T07:10:52;26.33;;;18.47;;
56511;SDS011;42408;53.238;5.686;2023-12-04T07:13:17;21.37;;;16.37;;
56511;SDS011;42408;53.238;5.686;2023-12-04T07:15:44;24.17;;;17.50;;
56511;SDS011;42408;53.238;5.686;2023-12-04T07:18:09;25.90;;;16.73;;
56511;SDS011;42408;53.238;5.686;2023-12-04T07:20:35;22.63;;;17.03;;
56511;SDS011;42408;53.238;5.686;2023-12-04T07:23:01;25.20;;;17.87;;
56511;SDS011;42408;53.238;5.686;2023-12-04T07:25:27;25.67;;;17.00;;
56511;SDS011;42408;53.238;5.686;2023-12-04T07:27:53;23.35;;;16.65;;
56511;SDS011;42408;53.238;5.686;2023-12-04T07:30:18;26.17;;;17.43;;
56511;SDS011;42408;53.238;5.686;2023-12-04T07:32:45;24.58;;;16.23;;
56511;SDS011;42408;53.238;5.686;2023-12-04T07:35:11;23.83;;;15.73;;
56511;SDS011;42408;53.238;5.686;2023-12-04T07:37:37;23.77;;;15.87;;
56511;SDS011;42408;53.238;5.686;2023-12-04T07:40:03;23.33;;;16.73;;
56511;SDS011;42408;53.238;5.686;2023-12-04T07:42:31;26.33;;;18.20;;
56511;SDS011;42408;53.238;5.686;2023-12-04T07:44:56;25.17;;;17.60;;
56511;SDS011;42408;53.238;5.686;2023-12-04T07:47:22;23.60;;;16.70;;
56511;SDS011;42408;53.238;5.686;2023-12-04T07:49:48;23.67;;;15.83;;
56511;SDS011;42408;53.238;5.686;2023-12-04T07:52:14;24.00;;;15.50;;
56511;SDS011;42408;53.238;5.686;2023-12-04T07:54:39;24.60;;;15.90;;
56511;SDS011;42408;53.238;5.686;2023-12-04T07:57:05;22.13;;;15.80;;
56511;SDS011;42408;53.238;5.686;2023-12-04T07:59:31;22.73;;;15.67;;
56511;SDS011;42408;53.238;5.686;2023-12-04T08:01:56;21.27;;;15.63;;
56511;SDS011;42408;53.238;5.686;2023-12-04T08:04:22;23.83;;;16.60;;
56511;SDS011;42408;53.238;5.686;2023-12-04T08:06:48;21.60;;;15.70;;
56511;SDS011;42408;53.238;5.686;2023-12-04T08:09:15;24.35;;;16.48;;
56511;SDS011;42408;53.238;5.686;2023-12-04T08:14:07;20.15;;;14.32;;
56511;SDS011;42408;53.238;5.686;2023-12-04T08:16:33;20.88;;;14.25;;
56511;SDS011;42408;53.238;5.686;2023-12-04T08:18:59;20.73;;;15.20;;
56511;SDS011;42408;53.238;5.686;2023-12-04T08:21:24;21.40;;;15.00;;
56511;SDS011;42408;53.238;5.686;2023-12-04T08:23:50;21.00;;;15.77;;
56511;SDS011;42408;53.238;5.686;2023-12-04T08:26:22;19.30;;;14.57;;
56511;SDS011;42408;53.238;5.686;2023-12-04T08:28:49;19.50;;;13.25;;
56511;SDS011;42408;53.238;5.686;2023-12-04T08:31:15;21.02;;;14.95;;
56511;SDS011;42408;53.238;5.686;2023-12-04T08:33:41;22.27;;;14.77;;
56511;SDS011;42408;53.238;5.686;2023-12-04T08:36:07;19.43;;;14.50;;
56511;SDS011;42408;53.238;5.686;2023-12-04T08:38:33;20.58;;;14.70;;
56511;SDS011;42408;53.238;5.686;2023-12-04T08:40:59;20.53;;;14.43;;
56511;SDS011;42408;53.238;5.686;2023-12-04T08:43:25;22.67;;;15.63;;
56511;SDS011;42408;53.238;5.686;2023-12-04T08:45:50;22.10;;;15.47;;
56511;SDS011;42408;53.238;5.686;2023-12-04T08:48:16;25.17;;;16.27;;
56511;SDS011;42408;53.238;5.686;2023-12-04T08:50:42;21.10;;;14.33;;
56511;SDS011;42408;53.238;5.686;2023-12-04T08:53:07;21.90;;;14.73;;
56511;SDS011;42408;53.238;5.686;2023-12-04T08:55:33;19.07;;;12.90;;
56511;SDS011;42408;53.238;5.686;2023-12-04T08:57:58;20.80;;;14.97;;
56511;SDS011;42408;53.238;5.686;2023-12-04T09:00:25;18.33;;;12.48;;
56511;SDS011;42408;53.238;5.686;2023-12-04T09:02:50;18.17;;;12.97;;
56511;SDS011;42408;53.238;5.686;2023-12-04T09:05:16;19.77;;;13.90;;
56511;SDS011;42408;53.238;5.686;2023-12-04T09:07:42;20.70;;;13.07;;
56511;SDS011;42408;53.238;5.686;2023-12-04T09:10:07;18.93;;;13.43;;
56511;SDS011;42408;53.238;5.686;2023-12-04T09:12:34;18.38;;;12.68;;
56511;SDS011;42408;53.238;5.686;2023-12-04T09:15:02;20.42;;;13.57;;
56511;SDS011;42408;53.238;5.686;2023-12-04T09:17:28;17.27;;;12.68;;
56511;SDS011;42408;53.238;5.686;2023-12-04T09:19:54;19.47;;;12.87;;
56511;SDS011;42408;53.238;5.686;2023-12-04T09:22:19;17.43;;;12.80;;
56511;SDS011;42408;53.238;5.686;2023-12-04T09:24:45;16.80;;;11.80;;
56511;SDS011;42408;53.238;5.686;2023-12-04T09:27:10;16.60;;;12.17;;
56511;SDS011;42408;53.238;5.686;2023-12-04T09:29:36;16.43;;;11.37;;
56511;SDS011;42408;53.238;5.686;2023-12-04T09:32:02;18.00;;;11.65;;
56511;SDS011;42408;53.238;5.686;2023-12-04T09:34:28;17.23;;;12.07;;
56511;SDS011;42408;53.238;5.686;2023-12-04T09:36:54;18.33;;;11.97;;
56511;SDS011;42408;53.238;5.686;2023-12-04T09:39:19;16.33;;;11.90;;
56511;SDS011;42408;53.238;5.686;2023-12-04T09:41:45;14.93;;;11.67;;
56511;SDS011;42408;53.238;5.686;2023-12-04T09:44:11;16.52;;;11.65;;
56511;SDS011;42408;53.238;5.686;2023-12-04T09:46:37;18.03;;;12.23;;
56511;SDS011;42408;53.238;5.686;2023-12-04T09:49:04;17.33;;;12.30;;
56511;SDS011;42408;53.238;5.686;2023-12-04T09:51:30;18.60;;;12.13;;
56511;SDS011;42408;53.238;5.686;2023-12-04T09:53:55;15.43;;;12.00;;
56511;SDS011;42408;53.238;5.686;2023-12-04T09:56:23;20.23;;;12.55;;
56511;SDS011;42408;53.238;5.686;2023-12-04T09:58:51;15.30;;;10.30;;
56511;SDS011;42408;53.238;5.686;2023-12-04T10:01:22;15.85;;;11.60;;
56511;SDS011;42408;53.238;5.686;2023-12-04T10:03:48;17.17;;;11.40;;
56511;SDS011;42408;53.238;5.686;2023-12-04T10:06:16;17.67;;;11.77;;
56511;SDS011;42408;53.238;5.686;2023-12-04T10:08:44;15.00;;;11.15;;
56511;SDS011;42408;53.238;5.686;2023-12-04T10:11:11;13.90;;;10.37;;
56511;SDS011;42408;53.238;5.686;2023-12-04T10:13:37;18.30;;;12.55;;
56511;SDS011;42408;53.238;5.686;2023-12-04T10:16:05;14.63;;;10.10;;
56511;SDS011;42408;53.238;5.686;2023-12-04T10:18:31;13.73;;;10.00;;
56511;SDS011;42408;53.238;5.686;2023-12-04T10:20:57;14.77;;;10.30;;
56511;SDS011;42408;53.238;5.686;2023-12-04T10:23:37;15.25;;;10.85;;
56511;SDS011;42408;53.238;5.686;2023-12-04T10:26:04;14.35;;;9.75;;
56511;SDS011;42408;53.238;5.686;2023-12-04T10:28:30;15.10;;;11.15;;
56511;SDS011;42408;53.238;5.686;2023-12-04T10:30:55;13.90;;;9.53;;
56511;SDS011;42408;53.238;5.686;2023-12-04T10:33:21;14.50;;;10.73;;
56511;SDS011;42408;53.238;5.686;2023-12-04T10:35:52;16.10;;;10.35;;
56511;SDS011;42408;53.238;5.686;2023-12-04T10:38:18;16.30;;;11.67;;
56511;SDS011;42408;53.238;5.686;2023-12-04T10:40:43;13.87;;;10.37;;
56511;SDS011;42408;53.238;5.686;2023-12-04T10:43:10;14.40;;;9.73;;
56511;SDS011;42408;53.238;5.686;2023-12-04T10:45:39;12.18;;;9.00;;
56511;SDS011;42408;53.238;5.686;2023-12-04T10:48:06;14.25;;;9.15;;
56511;SDS011;42408;53.238;5.686;2023-12-04T10:50:36;13.27;;;9.30;;
56511;SDS011;42408;53.238;5.686;2023-12-04T10:53:06;30.20;;;24.92;;
56511;SDS011;42408;53.238;5.686;2023-12-04T10:55:33;14.82;;;10.75;;
56511;SDS011;42408;53.238;5.686;2023-12-04T10:58:00;15.88;;;11.10;;
56511;SDS011;42408;53.238;5.686;2023-12-04T11:00:28;14.27;;;8.85;;
56511;SDS011;42408;53.238;5.686;2023-12-04T11:02:57;12.38;;;9.52;;
56511;SDS011;42408;53.238;5.686;2023-12-04T11:05:38;15.55;;;11.18;;
56511;SDS011;42408;53.238;5.686;2023-12-04T11:10:43;18.58;;;15.60;;
56511;SDS011;42408;53.238;5.686;2023-12-04T11:13:32;18.02;;;14.45;;
56511;SDS011;42408;53.238;5.686;2023-12-04T11:16:02;14.15;;;10.43;;
56511;SDS011;42408;53.238;5.686;2023-12-04T11:18:41;13.30;;;8.25;;
56511;SDS011;42408;53.238;5.686;2023-12-04T11:21:09;13.82;;;9.73;;
56511;SDS011;42408;53.238;5.686;2023-12-04T11:23:36;14.80;;;10.05;;
56511;SDS011;42408;53.238;5.686;2023-12-04T11:26:03;16.00;;;11.15;;
56511;SDS011;42408;53.238;5.686;2023-12-04T11:28:30;12.80;;;9.52;;
56511;SDS011;42408;53.238;5.686;2023-12-04T11:30:58;16.40;;;11.60;;
56511;SDS011;42408;53.238;5.686;2023-12-04T11:33:26;18.50;;;14.25;;
56511;SDS011;42408;53.238;5.686;2023-12-04T11:35:51;13.80;;;10.23;;
56511;SDS011;42408;53.238;5.686;2023-12-04T11:38:17;12.50;;;8.50;;
56511;SDS011;42408;53.238;5.686;2023-12-04T11:40:43;14.10;;;8.60;;
56511;SDS011;42408;53.238;5.686;2023-12-04T11:45:48;13.80;;;9.32;;
56511;SDS011;42408;53.238;5.686;2023-12-04T11:48:14;12.63;;;8.90;;
56511;SDS011;42408;53.238;5.686;2023-12-04T11:50:40;10.70;;;8.02;;
56511;SDS011;42408;53.238;5.686;2023-12-04T11:53:09;12.50;;;8.85;;
56511;SDS011;42408;53.238;5.686;2023-12-04T11:55:36;11.25;;;8.32;;
56511;SDS011;42408;53.238;5.686;2023-12-04T11:58:08;11.50;;;8.40;;
56511;SDS011;42408;53.238;5.686;2023-12-04T12:00:35;14.35;;;9.00;;
56511;SDS011;42408;53.238;5.686;2023-12-04T12:03:01;12.53;;;8.87;;
56511;SDS011;42408;53.238;5.686;2023-12-04T12:05:31;12.18;;;9.15;;
56511;SDS011;42408;53.238;5.686;2023-12-04T12:07:59;13.50;;;9.10;;
56511;SDS011;42408;53.238;5.686;2023-12-04T12:10:27;12.52;;;8.85;;
56511;SDS011;42408;53.238;5.686;2023-12-04T12:12:53;14.13;;;9.77;;
56511;SDS011;42408;53.238;5.686;2023-12-04T12:15:18;12.37;;;9.60;;
56511;SDS011;42408;53.238;5.686;2023-12-04T12:17:45;12.82;;;9.68;;
56511;SDS011;42408;53.238;5.686;2023-12-04T12:20:11;14.47;;;10.50;;
56511;SDS011;42408;53.238;5.686;2023-12-04T12:22:39;13.00;;;9.32;;
56511;SDS011;42408;53.238;5.686;2023-12-04T12:25:07;13.75;;;9.65;;
56511;SDS011;42408;53.238;5.686;2023-12-04T12:29:59;12.57;;;8.85;;
56511;SDS011;42408;53.238;5.686;2023-12-04T12:32:25;12.88;;;9.73;;
56511;SDS011;42408;53.238;5.686;2023-12-04T12:34:52;13.25;;;9.40;;
56511;SDS011;42408;53.238;5.686;2023-12-04T12:37:20;13.45;;;9.65;;
56511;SDS011;42408;53.238;5.686;2023-12-04T12:39:46;12.45;;;9.25;;
56511;SDS011;42408;53.238;5.686;2023-12-04T12:42:20;13.53;;;9.23;;
56511;SDS011;42408;53.238;5.686;2023-12-04T12:44:51;13.85;;;9.70;;
56511;SDS011;42408;53.238;5.686;2023-12-04T12:49:44;13.63;;;9.13;;
56511;SDS011;42408;53.238;5.686;2023-12-04T12:52:10;13.55;;;9.55;;
56511;SDS011;42408;53.238;5.686;2023-12-04T12:54:37;13.23;;;9.07;;
56511;SDS011;42408;53.238;5.686;2023-12-04T12:57:06;11.82;;;8.40;;
56511;SDS011;42408;53.238;5.686;2023-12-04T12:59:32;14.82;;;11.25;;
56511;SDS011;42408;53.238;5.686;2023-12-04T13:01:59;14.60;;;10.20;;
56511;SDS011;42408;53.238;5.686;2023-12-04T13:04:25;13.60;;;10.50;;
56511;SDS011;42408;53.238;5.686;2023-12-04T13:06:51;18.85;;;15.23;;
56511;SDS011;42408;53.238;5.686;2023-12-04T13:09:18;18.97;;;13.60;;
56511;SDS011;42408;53.238;5.686;2023-12-04T13:14:10;14.20;;;11.02;;
56511;SDS011;42408;53.238;5.686;2023-12-04T13:16:36;13.37;;;9.47;;
56511;SDS011;42408;53.238;5.686;2023-12-04T13:19:01;14.33;;;11.00;;
56511;SDS011;42408;53.238;5.686;2023-12-04T13:21:27;12.77;;;8.97;;
56511;SDS011;42408;53.238;5.686;2023-12-04T13:23:54;13.77;;;9.68;;
56511;SDS011;42408;53.238;5.686;2023-12-04T13:26:20;13.83;;;9.30;;
56511;SDS011;42408;53.238;5.686;2023-12-04T13:28:46;14.35;;;10.15;;
56511;SDS011;42408;53.238;5.686;2023-12-04T13:31:12;13.40;;;9.17;;
56511;SDS011;42408;53.238;5.686;2023-12-04T13:33:38;13.20;;;9.15;;
56511;SDS011;42408;53.238;5.686;2023-12-04T13:36:04;11.30;;;8.90;;
56511;SDS011;42408;53.238;5.686;2023-12-04T13:38:30;13.65;;;9.95;;
56511;SDS011;42408;53.238;5.686;2023-12-04T13:40:56;12.50;;;9.57;;
56511;SDS011;42408;53.238;5.686;2023-12-04T13:43:28;13.50;;;9.70;;
56511;SDS011;42408;53.238;5.686;2023-12-04T13:46:12;14.10;;;9.65;;
56511;SDS011;42408;53.238;5.686;2023-12-04T13:48:38;82.27;;;47.43;;
56511;SDS011;42408;53.238;5.686;2023-12-04T13:51:10;43.15;;;31.45;;
56511;SDS011;42408;53.238;5.686;2023-12-04T13:53:36;18.45;;;14.32;;
56511;SDS011;42408;53.238;5.686;2023-12-04T13:56:07;14.27;;;10.80;;
56511;SDS011;42408;53.238;5.686;2023-12-04T13:58:45;16.33;;;11.80;;
56511;SDS011;42408;53.238;5.686;2023-12-04T14:01:14;15.88;;;10.40;;
56511;SDS011;42408;53.238;5.686;2023-12-04T14:03:41;13.82;;;9.82;;
56511;SDS011;42408;53.238;5.686;2023-12-04T14:06:08;14.65;;;10.68;;
56511;SDS011;42408;53.238;5.686;2023-12-04T14:08:34;14.27;;;9.88;;
56511;SDS011;42408;53.238;5.686;2023-12-04T14:11:01;13.18;;;9.68;;
56511;SDS011;42408;53.238;5.686;2023-12-04T14:13:27;12.35;;;9.50;;
56511;SDS011;42408;53.238;5.686;2023-12-04T14:15:53;13.87;;;9.13;;
56511;SDS011;42408;53.238;5.686;2023-12-04T14:18:19;15.90;;;11.48;;
56511;SDS011;42408;53.238;5.686;2023-12-04T14:20:45;15.10;;;11.13;;
56511;SDS011;42408;53.238;5.686;2023-12-04T14:23:11;13.38;;;9.15;;
56511;SDS011;42408;53.238;5.686;2023-12-04T14:25:37;12.73;;;9.00;;
56511;SDS011;42408;53.238;5.686;2023-12-04T14:28:02;12.23;;;9.50;;
56511;SDS011;42408;53.238;5.686;2023-12-04T14:30:28;13.80;;;10.80;;
56511;SDS011;42408;53.238;5.686;2023-12-04T14:32:54;13.43;;;9.10;;
56511;SDS011;42408;53.238;5.686;2023-12-04T14:35:20;15.30;;;11.80;;